Time,TemperatureF,DewpointF,PressureIn,WindDirection,WindDirectionDegrees,WindSpeedMPH,WindSpeedGustMPH,Humidity,HourlyPrecipIn,Conditions,Clouds,dailyrainin,SoftwareType,DateUTC
2013-02-27 00:04:00,34.2,31.8,28.85,WNW,295,7.0,7.0,91,0.00,RA,,0.00,WeatherDisplay:10.37,2013-02-27 06:04:00,
2013-02-27 00:09:00,34.2,31.8,28.85,WNW,295,7.0,7.0,91,0.00,RA,,0.00,WeatherDisplay:10.37,2013-02-27 06:09:00,
2013-02-27 00:14:00,34.2,31.8,28.85,WNW,292,7.0,7.0,91,0.00,OVC,,0.00,WeatherDisplay:10.37,2013-02-27 06:14:00,
2013-02-27 00:19:00,34.2,31.8,28.85,WNW,293,7.0,7.0,91,0.00,OVC,,0.00,WeatherDisplay:10.37,2013-02-27 06:19:00,
2013-02-27 00:29:00,34.2,31.8,28.88,WNW,293,7.0,7.0,91,0.00,OVC,,0.00,WeatherDisplay:10.37,2013-02-27 06:29:00,
2013-02-27 00:34:00,34.2,31.8,28.88,WNW,295,7.0,7.0,91,0.00,OVC,,0.00,WeatherDisplay:10.37,2013-02-27 06:34:00,
2013-02-27 00:39:00,34.2,31.8,28.88,WNW,296,7.0,7.0,91,0.00,OVC,,0.00,WeatherDisplay:10.37,2013-02-27 06:39:00,
2013-02-27 00:44:00,34.2,31.8,28.88,WNW,295,8.0,8.0,91,0.00,OVC,,0.00,WeatherDisplay:10.37,2013-02-27 06:44:00,
2013-02-27 00:49:00,34.2,31.8,28.88,WNW,301,8.0,8.0,91,0.00,OVC,,0.00,WeatherDisplay:10.37,2013-02-27 06:49:00,
2013-02-27 00:54:00,34.2,31.8,28.88,WNW,302,8.0,8.0,91,0.00,OVC,,0.00,WeatherDisplay:10.37,2013-02-27 06:54:00,
2013-02-27 00:59:00,34.2,31.8,28.88,WNW,298,9.0,9.0,91,0.00,OVC,,0.00,WeatherDisplay:10.37,2013-02-27 06:59:00,
2013-02-27 01:04:00,34.2,31.8,28.88,WNW,298,8.0,9.0,91,0.00,OVC,,0.00,WeatherDisplay:10.37,2013-02-27 07:04:00,
2013-02-27 01:09:00,34.2,31.8,28.88,WNW,299,8.0,9.0,91,0.00,OVC,,0.00,WeatherDisplay:10.37,2013-02-27 07:09:00,
2013-02-27 01:14:00,34.2,31.8,28.88,WNW,297,8.0,9.0,91,0.00,OVC,,0.00,WeatherDisplay:10.37,2013-02-27 07:14:00,
2013-02-27 01:19:00,34.2,31.8,28.88,WNW,299,8.0,9.0,91,0.00,OVC,,0.00,WeatherDisplay:10.37,2013-02-27 07:19:00,
2013-02-27 01:24:00,34.2,31.8,28.88,WNW,297,9.0,9.0,91,0.00,OVC,,0.00,WeatherDisplay:10.37,2013-02-27 07:24:00,
2013-02-27 01:25:00,36.5,29.0,28.97,WNW,301,14.0,14.0,74,0.00,RA,,0.02,WeatherDisplay:10.37,2013-02-27 07:25:00,
2013-02-27 01:29:00,34.2,31.8,28.88,WNW,295,9.0,9.0,91,0.00,OVC,,0.00,WeatherDisplay:10.37,2013-02-27 07:29:00,
2013-02-27 01:30:00,36.5,29.0,28.97,WNW,298,14.0,14.0,74,0.00,RA,,0.02,WeatherDisplay:10.37,2013-02-27 07:30:00,
2013-02-27 01:34:00,34.2,31.8,28.88,WNW,297,9.0,9.0,91,0.00,OVC,,0.00,WeatherDisplay:10.37,2013-02-27 07:34:00,
2013-02-27 01:39:00,34.2,31.8,28.88,WNW,296,9.0,9.0,91,0.00,OVC,,0.00,WeatherDisplay:10.37,2013-02-27 07:39:00,
2013-02-27 01:44:00,31.8,29.8,28.88,WNW,295,9.0,9.0,92,0.00,OVC,,0.00,WeatherDisplay:10.37,2013-02-27 07:44:00,
2013-02-27 01:49:00,31.8,29.8,28.88,WNW,293,9.0,9.0,92,0.00,OVC,,0.00,WeatherDisplay:10.37,2013-02-27 07:49:00,
2013-02-27 01:54:00,31.8,29.5,28.88,WNW,294,9.0,9.0,91,0.00,OVC,,0.00,WeatherDisplay:10.37,2013-02-27 07:54:00,
2013-02-27 01:59:00,31.8,29.5,28.88,WNW,299,9.0,9.0,91,0.00,OVC,,0.00,WeatherDisplay:10.37,2013-02-27 07:59:00,
2013-02-27 02:00:00,36.1,28.6,29.00,WNW,300,14.0,14.0,74,0.00,RA,,0.03,WeatherDisplay:10.37,2013-02-27 08:00:00,
2013-02-27 02:04:00,31.6,29.6,28.88,WNW,296,9.0,9.0,92,0.00,OVC,,0.00,WeatherDisplay:10.37,2013-02-27 08:04:00,
2013-02-27 02:09:00,31.6,29.3,28.88,WNW,299,9.0,9.0,91,0.00,OVC,,0.00,WeatherDisplay:10.37,2013-02-27 08:09:00,
2013-02-27 02:14:00,31.6,29.6,28.88,WNW,301,9.0,10.0,92,0.00,OVC,,0.00,WeatherDisplay:10.37,2013-02-27 08:14:00,
2013-02-27 02:19:00,31.6,29.3,28.88,WNW,296,10.0,10.0,91,0.00,OVC,,0.00,WeatherDisplay:10.37,2013-02-27 08:19:00,
2013-02-27 02:24:00,31.6,29.6,28.88,WNW,299,10.0,10.0,92,0.00,OVC,,0.00,WeatherDisplay:10.37,2013-02-27 08:24:00,
2013-02-27 02:29:00,31.6,29.6,28.88,WNW,301,10.0,10.0,92,0.00,OVC,,0.00,WeatherDisplay:10.37,2013-02-27 08:29:00,
2013-02-27 02:34:00,31.6,29.3,28.88,WNW,292,10.0,10.0,91,0.00,OVC,,0.00,WeatherDisplay:10.37,2013-02-27 08:34:00,
2013-02-27 02:39:00,31.6,29.3,28.88,WNW,289,10.0,10.0,91,0.00,OVC,,0.00,WeatherDisplay:10.37,2013-02-27 08:39:00,
2013-02-27 02:49:00,31.6,29.3,28.88,West,280,10.0,10.0,91,0.00,OVC,,0.00,WeatherDisplay:10.37,2013-02-27 08:49:00,
2013-02-27 02:54:00,31.6,29.3,28.88,West,280,10.0,10.0,91,0.00,OVC,,0.00,WeatherDisplay:10.37,2013-02-27 08:54:00,
2013-02-27 02:59:00,31.8,29.8,28.88,West,280,10.0,11.0,92,0.00,OVC,,0.00,WeatherDisplay:10.37,2013-02-27 08:59:00,
2013-02-27 03:04:00,31.6,29.6,28.88,West,280,10.0,11.0,92,0.00,OVC,,0.00,WeatherDisplay:10.37,2013-02-27 09:04:00,
2013-02-27 03:09:00,31.6,29.6,28.88,West,280,10.0,10.0,92,0.00,OVC,,0.00,WeatherDisplay:10.37,2013-02-27 09:09:00,
2013-02-27 03:14:00,31.6,29.3,28.88,West,280,10.0,10.0,91,0.00,OVC,,0.00,WeatherDisplay:10.37,2013-02-27 09:14:00,
2013-02-27 03:19:00,31.8,29.8,28.88,West,280,10.0,10.0,92,0.00,OVC,,0.00,WeatherDisplay:10.37,2013-02-27 09:19:00,
2013-02-27 03:24:00,31.6,29.6,28.88,West,280,10.0,10.0,92,0.00,OVC,,0.00,WeatherDisplay:10.37,2013-02-27 09:24:00,
2013-02-27 03:29:00,31.8,29.8,28.88,West,280,9.0,10.0,92,0.00,OVC,,0.00,WeatherDisplay:10.37,2013-02-27 09:29:00,
2013-02-27 03:34:00,31.6,29.6,28.88,West,280,9.0,10.0,92,0.00,OVC,,0.00,WeatherDisplay:10.37,2013-02-27 09:34:00,
2013-02-27 03:39:00,31.6,29.6,28.88,West,280,9.0,9.0,92,0.00,OVC,,0.00,WeatherDisplay:10.37,2013-02-27 09:39:00,
2013-02-27 03:44:00,31.6,29.6,28.88,West,280,9.0,9.0,92,0.00,OVC,,0.00,WeatherDisplay:10.37,2013-02-27 09:44:00,
2013-02-27 03:49:00,31.6,29.6,28.88,West,280,8.0,9.0,92,0.00,OVC,,0.00,WeatherDisplay:10.37,2013-02-27 09:49:00,
2013-02-27 03:54:00,31.8,29.8,28.88,West,280,8.0,9.0,92,0.00,OVC,,0.00,WeatherDisplay:10.37,2013-02-27 09:54:00,
2013-02-27 03:59:00,31.8,29.8,28.88,West,280,8.0,9.0,92,0.00,OVC,,0.00,WeatherDisplay:10.37,2013-02-27 09:59:00,
2013-02-27 04:04:00,31.8,29.8,28.88,West,280,9.0,9.0,92,0.00,OVC,,0.00,WeatherDisplay:10.37,2013-02-27 10:04:00,
2013-02-27 04:09:00,31.8,29.8,28.88,West,280,9.0,9.0,92,0.00,OVC,,0.00,WeatherDisplay:10.37,2013-02-27 10:09:00,
2013-02-27 04:14:00,31.6,29.6,28.91,West,280,9.0,9.0,92,0.00,OVC,,0.00,WeatherDisplay:10.37,2013-02-27 10:14:00,
2013-02-27 04:19:00,31.8,29.8,28.91,West,280,9.0,9.0,92,0.00,OVC,,0.00,WeatherDisplay:10.37,2013-02-27 10:19:00,
2013-02-27 04:24:00,31.8,29.8,28.88,West,280,9.0,9.0,92,0.00,OVC,,0.00,WeatherDisplay:10.37,2013-02-27 10:24:00,
2013-02-27 04:29:00,31.8,29.8,28.91,West,280,9.0,9.0,92,0.00,OVC,,0.00,WeatherDisplay:10.37,2013-02-27 10:29:00,
2013-02-27 04:34:00,31.8,29.8,28.91,West,280,9.0,9.0,92,0.00,OVC,,0.00,WeatherDisplay:10.37,2013-02-27 10:34:00,
2013-02-27 04:39:00,31.8,29.8,28.91,West,280,9.0,9.0,92,0.00,OVC,,0.00,WeatherDisplay:10.37,2013-02-27 10:39:00,
2013-02-27 04:44:00,31.8,29.8,28.91,West,280,9.0,9.0,92,0.00,OVC,,0.00,WeatherDisplay:10.37,2013-02-27 10:44:00,
2013-02-27 04:49:00,31.8,29.8,28.91,WNW,282,9.0,9.0,92,0.00,OVC,,0.00,WeatherDisplay:10.37,2013-02-27 10:49:00,
2013-02-27 04:54:00,31.8,29.8,28.91,WNW,282,9.0,9.0,92,0.00,OVC,,0.00,WeatherDisplay:10.37,2013-02-27 10:54:00,
2013-02-27 04:59:00,31.8,29.8,28.91,West,280,9.0,10.0,92,0.00,OVC,,0.00,WeatherDisplay:10.37,2013-02-27 10:59:00,
2013-02-27 05:04:00,32.0,29.9,28.91,West,280,10.0,10.0,92,0.00,OVC,,0.00,WeatherDisplay:10.37,2013-02-27 11:04:00,
2013-02-27 05:09:00,32.0,29.9,28.91,West,281,10.0,10.0,92,0.00,OVC,,0.00,WeatherDisplay:10.37,2013-02-27 11:09:00,
2013-02-27 05:14:00,32.0,29.9,28.91,West,281,10.0,10.0,92,0.00,OVC,,0.00,WeatherDisplay:10.37,2013-02-27 11:14:00,
2013-02-27 05:19:00,31.8,29.8,28.91,West,280,10.0,10.0,92,0.00,OVC,,0.00,WeatherDisplay:10.37,2013-02-27 11:19:00,
2013-02-27 05:24:00,31.8,29.8,28.91,West,280,10.0,10.0,92,0.00,OVC,,0.00,WeatherDisplay:10.37,2013-02-27 11:24:00,
2013-02-27 05:29:00,32.0,29.9,28.91,West,280,10.0,10.0,92,0.00,OVC,,0.00,WeatherDisplay:10.37,2013-02-27 11:29:00,
2013-02-27 05:34:00,32.0,29.9,28.91,WNW,282,10.0,10.0,92,0.00,OVC,,0.00,WeatherDisplay:10.37,2013-02-27 11:34:00,
2013-02-27 05:39:00,31.8,29.8,28.91,West,281,10.0,10.0,92,0.00,OVC,,0.00,WeatherDisplay:10.37,2013-02-27 11:39:00,
2013-02-27 05:44:00,31.8,29.8,28.91,West,280,10.0,11.0,92,0.00,OVC,,0.00,WeatherDisplay:10.37,2013-02-27 11:44:00,
2013-02-27 05:49:00,31.8,29.8,28.91,West,280,10.0,11.0,92,0.00,OVC,,0.00,WeatherDisplay:10.37,2013-02-27 11:49:00,
2013-02-27 05:54:00,31.6,29.6,28.91,WNW,282,12.0,12.0,92,0.00,OVC,,0.00,WeatherDisplay:10.37,2013-02-27 11:54:00,
2013-02-27 05:59:00,31.8,29.8,28.91,WNW,283,12.0,12.0,92,0.00,OVC,,0.00,WeatherDisplay:10.37,2013-02-27 11:59:00,
2013-02-27 06:04:00,31.8,29.8,28.91,West,280,12.0,12.0,92,0.00,OVC,,0.00,WeatherDisplay:10.37,2013-02-27 12:04:00,
2013-02-27 06:09:00,31.8,29.8,28.91,West,280,13.0,13.0,92,0.00,OVC,,0.00,WeatherDisplay:10.37,2013-02-27 12:09:00,
2013-02-27 06:14:00,31.8,29.8,28.91,West,280,12.0,12.0,92,0.00,OVC,,0.00,WeatherDisplay:10.37,2013-02-27 12:14:00,
2013-02-27 06:19:00,31.6,29.6,28.91,WNW,282,12.0,12.0,92,0.00,OVC,,0.00,WeatherDisplay:10.37,2013-02-27 12:19:00,
2013-02-27 06:24:00,31.6,29.6,28.91,West,281,12.0,12.0,92,0.00,OVC,,0.00,WeatherDisplay:10.37,2013-02-27 12:24:00,
2013-02-27 06:29:00,31.6,29.6,28.91,West,280,12.0,12.0,92,0.00,OVC,,0.00,WeatherDisplay:10.37,2013-02-27 12:29:00,
2013-02-27 06:34:00,31.8,29.5,28.91,West,280,12.0,12.0,91,0.00,-SN,,0.00,WeatherDisplay:10.37,2013-02-27 12:34:00,
2013-02-27 06:39:00,31.6,29.6,28.91,West,280,12.0,12.0,92,0.00,-SN,,0.00,WeatherDisplay:10.37,2013-02-27 12:39:00,
2013-02-27 06:44:00,31.6,29.6,28.94,West,280,13.0,13.0,92,0.00,-SN,,0.00,WeatherDisplay:10.37,2013-02-27 12:44:00,
2013-02-27 06:49:00,31.6,29.6,28.94,West,280,13.0,13.0,92,0.00,-SN,,0.00,WeatherDisplay:10.37,2013-02-27 12:49:00,
2013-02-27 06:54:00,31.6,29.6,28.94,West,280,12.0,13.0,92,0.00,-SN,,0.00,WeatherDisplay:10.37,2013-02-27 12:54:00,
2013-02-27 06:59:00,31.8,29.5,28.94,West,281,13.0,13.0,91,0.00,-SN,,0.00,WeatherDisplay:10.37,2013-02-27 12:59:00,
2013-02-27 07:09:00,31.8,29.8,28.94,WNW,285,13.0,13.0,92,0.00,-SN,,0.00,WeatherDisplay:10.37,2013-02-27 13:09:00,
2013-02-27 07:14:00,32.0,29.9,28.94,WNW,285,13.0,13.0,92,0.00,-SN,,0.00,WeatherDisplay:10.37,2013-02-27 13:14:00,
2013-02-27 07:19:00,32.0,29.9,28.94,WNW,285,13.0,13.0,92,0.00,-SN,,0.00,WeatherDisplay:10.37,2013-02-27 13:19:00,
2013-02-27 07:24:00,32.2,30.1,28.94,WNW,285,13.0,13.0,92,0.00,-SN,,0.00,WeatherDisplay:10.37,2013-02-27 13:24:00,
2013-02-27 07:29:00,32.0,29.9,28.94,WNW,285,13.0,13.0,92,0.00,-SN,,0.00,WeatherDisplay:10.37,2013-02-27 13:29:00,
2013-02-27 07:34:00,32.4,30.3,28.94,WNW,285,14.0,14.0,92,0.00,-SN,,0.00,WeatherDisplay:10.37,2013-02-27 13:34:00,
2013-02-27 07:39:00,32.2,30.1,28.94,WNW,285,14.0,14.0,92,0.00,-SN,,0.00,WeatherDisplay:10.37,2013-02-27 13:39:00,
2013-02-27 07:44:00,32.4,30.3,28.94,WNW,285,14.0,14.0,92,0.00,-SN,,0.00,WeatherDisplay:10.37,2013-02-27 13:44:00,
2013-02-27 07:49:00,32.4,30.3,28.97,WNW,285,14.0,14.0,92,0.00,-SN,,0.00,WeatherDisplay:10.37,2013-02-27 13:49:00,
2013-02-27 07:54:00,32.5,30.5,28.97,WNW,283,14.0,14.0,92,0.00,-SN,,0.00,WeatherDisplay:10.37,2013-02-27 13:54:00,
2013-02-27 08:04:00,32.7,30.7,28.97,West,280,13.0,14.0,92,0.00,-SN,,0.00,WeatherDisplay:10.37,2013-02-27 14:04:00,
2013-02-27 08:09:00,32.7,30.7,28.97,WNW,282,13.0,13.0,92,0.00,-SN,,0.00,WeatherDisplay:10.37,2013-02-27 14:09:00,
2013-02-27 08:14:00,32.7,30.7,28.97,WNW,285,13.0,13.0,92,0.00,-SN,,0.00,WeatherDisplay:10.37,2013-02-27 14:14:00,
2013-02-27 08:19:00,33.1,31.0,28.97,WNW,282,12.0,13.0,92,0.00,-SN,,0.00,WeatherDisplay:10.37,2013-02-27 14:19:00,
2013-02-27 08:24:00,32.9,30.6,28.97,WNW,282,12.0,12.0,91,0.00,-SN,,0.00,WeatherDisplay:10.37,2013-02-27 14:24:00,
2013-02-27 08:29:00,33.1,30.7,28.97,WNW,282,12.0,12.0,91,0.00,-SN,,0.00,WeatherDisplay:10.37,2013-02-27 14:29:00,
2013-02-27 08:34:00,33.1,30.7,28.97,WNW,283,12.0,12.0,91,0.00,-SN,,0.00,WeatherDisplay:10.37,2013-02-27 14:34:00,
2013-02-27 08:39:00,33.3,30.9,28.97,WNW,285,12.0,12.0,91,0.00,-SN,,0.00,WeatherDisplay:10.37,2013-02-27 14:39:00,
2013-02-27 08:44:00,33.1,30.7,28.97,WNW,285,12.0,12.0,91,0.00,-SN,,0.00,WeatherDisplay:10.37,2013-02-27 14:44:00,
2013-02-27 08:49:00,32.9,30.6,28.97,WNW,285,12.0,12.0,91,0.00,-SN,,0.00,WeatherDisplay:10.37,2013-02-27 14:49:00,
2013-02-27 08:54:00,33.3,30.9,28.97,WNW,285,12.0,12.0,91,0.00,-SN,,0.00,WeatherDisplay:10.37,2013-02-27 14:54:00,
2013-02-27 08:59:00,33.3,30.9,28.97,WNW,285,12.0,12.0,91,0.00,-SN,,0.00,WeatherDisplay:10.37,2013-02-27 14:59:00,
2013-02-27 09:04:00,33.6,31.0,28.97,WNW,287,10.0,12.0,90,0.00,-SN,,0.00,WeatherDisplay:10.37,2013-02-27 15:04:00,
2013-02-27 09:09:00,33.6,31.0,28.97,WNW,288,10.0,11.0,90,0.00,-SN,,0.00,WeatherDisplay:10.37,2013-02-27 15:09:00,
2013-02-27 09:14:00,33.6,31.0,28.97,WNW,288,10.0,11.0,90,0.00,-SN,,0.00,WeatherDisplay:10.37,2013-02-27 15:14:00,
2013-02-27 09:19:00,33.6,31.0,28.97,WNW,283,10.0,10.0,90,0.00,-SN,,0.01,WeatherDisplay:10.37,2013-02-27 15:19:00,
2013-02-27 09:24:00,34.0,31.1,28.97,WNW,284,9.0,10.0,89,0.00,-SN,,0.01,WeatherDisplay:10.37,2013-02-27 15:24:00,
2013-02-27 09:29:00,34.2,31.0,28.97,WNW,289,10.0,10.0,88,0.00,-SN,,0.01,WeatherDisplay:10.37,2013-02-27 15:29:00,
2013-02-27 09:34:00,34.3,31.2,28.97,WNW,284,10.0,10.0,88,0.00,OVC,,0.01,WeatherDisplay:10.37,2013-02-27 15:34:00,
2013-02-27 09:39:00,34.7,31.2,28.97,WNW,282,10.0,11.0,87,0.00,OVC,,0.01,WeatherDisplay:10.37,2013-02-27 15:39:00,
2013-02-27 09:44:00,34.9,31.4,28.97,WNW,289,12.0,12.0,87,0.00,OVC,,0.01,WeatherDisplay:10.37,2013-02-27 15:44:00,
2013-02-27 09:49:00,34.7,30.9,28.97,WNW,289,12.0,12.0,86,0.00,-SN,,0.01,WeatherDisplay:10.37,2013-02-27 15:49:00,
2013-02-27 09:54:00,35.4,31.4,28.97,WNW,286,12.0,12.0,85,0.00,-SN,,0.01,WeatherDisplay:10.37,2013-02-27 15:54:00,
2013-02-27 09:59:00,36.0,31.6,28.97,WNW,286,13.0,13.0,84,0.00,-SN,,0.01,WeatherDisplay:10.37,2013-02-27 15:59:00,
2013-02-27 10:04:00,35.8,31.1,28.97,WNW,287,13.0,13.0,83,0.00,-SN,,0.01,WeatherDisplay:10.37,2013-02-27 16:04:00,
2013-02-27 10:09:00,35.8,30.8,28.97,WNW,286,14.0,14.0,82,0.00,-SN,,0.01,WeatherDisplay:10.37,2013-02-27 16:09:00,
2013-02-27 10:14:00,36.1,30.9,28.97,West,281,14.0,14.0,81,0.00,-SN,,0.01,WeatherDisplay:10.37,2013-02-27 16:14:00,
2013-02-27 10:19:00,35.4,30.2,28.97,WNW,290,13.0,14.0,81,0.00,-SN,,0.01,WeatherDisplay:10.37,2013-02-27 16:19:00,
2013-02-27 10:24:00,34.9,29.6,28.97,WNW,293,14.0,14.0,81,0.00,-SN,,0.01,WeatherDisplay:10.37,2013-02-27 16:24:00,
2013-02-27 10:29:00,34.3,28.8,28.97,WNW,295,13.0,13.0,80,0.00,-SN,,0.01,WeatherDisplay:10.37,2013-02-27 16:29:00,
2013-02-27 10:34:00,34.5,29.0,28.97,WNW,297,13.0,13.0,80,0.00,-SN,,0.01,WeatherDisplay:10.37,2013-02-27 16:34:00,
2013-02-27 10:39:00,34.2,28.6,28.97,WNW,297,13.0,13.0,80,0.00,-SN,,0.01,WeatherDisplay:10.37,2013-02-27 16:39:00,
2013-02-27 10:44:00,34.7,29.2,28.97,WNW,295,13.0,13.0,80,0.00,-SN,,0.01,WeatherDisplay:10.37,2013-02-27 16:44:00,
2013-02-27 10:49:00,35.6,29.7,28.97,WNW,290,13.0,13.0,79,0.00,-SN,,0.01,WeatherDisplay:10.37,2013-02-27 16:49:00,
2013-02-27 10:54:00,35.8,29.9,28.97,WNW,294,13.0,13.0,79,0.00,-SN,,0.01,WeatherDisplay:10.37,2013-02-27 16:54:00,
2013-02-27 10:59:00,36.9,30.6,28.97,WNW,296,13.0,13.0,78,0.00,-SN,,0.01,WeatherDisplay:10.37,2013-02-27 16:59:00,
2013-02-27 11:04:00,36.7,29.8,28.97,WNW,295,13.0,13.0,76,0.00,-SN,,0.01,WeatherDisplay:10.37,2013-02-27 17:04:00,
2013-02-27 11:09:00,36.1,29.0,28.97,WNW,294,13.0,13.0,75,0.00,-SN,,0.01,WeatherDisplay:10.37,2013-02-27 17:09:00,
2013-02-27 11:19:00,36.3,29.2,28.97,WNW,297,13.0,13.0,75,0.00,-SN,,0.01,WeatherDisplay:10.37,2013-02-27 17:19:00,
2013-02-27 11:24:00,36.5,29.0,28.97,WNW,298,13.0,13.0,74,0.00,-SN,,0.01,WeatherDisplay:10.37,2013-02-27 17:24:00,
2013-02-27 11:29:00,36.7,29.2,28.97,WNW,297,13.0,13.0,74,0.00,-SN,,0.01,WeatherDisplay:10.37,2013-02-27 17:29:00,
2013-02-27 11:34:00,37.0,29.5,28.97,WNW,297,13.0,13.0,74,0.00,-SN,,0.01,WeatherDisplay:10.37,2013-02-27 17:34:00,
2013-02-27 11:39:00,37.0,29.5,28.97,WNW,293,13.0,13.0,74,0.00,-SN,,0.01,WeatherDisplay:10.37,2013-02-27 17:39:00,
2013-02-27 11:44:00,37.2,29.7,28.97,WNW,292,13.0,13.0,74,0.00,-SN,,0.01,WeatherDisplay:10.37,2013-02-27 17:44:00,
2013-02-27 11:49:00,36.1,28.0,28.97,WNW,303,14.0,14.0,72,0.00,-SN,,0.01,WeatherDisplay:10.37,2013-02-27 17:49:00,
2013-02-27 11:54:00,35.8,27.6,28.97,NW,305,14.0,14.0,72,0.00,-SN,,0.01,WeatherDisplay:10.37,2013-02-27 17:54:00,
2013-02-27 11:59:00,34.9,27.4,28.97,WNW,298,14.0,14.0,74,0.00,-SN,,0.01,WeatherDisplay:10.37,2013-02-27 17:59:00,
2013-02-27 12:04:00,34.9,27.8,28.97,WNW,293,14.0,14.0,75,0.00,-SN,,0.01,WeatherDisplay:10.37,2013-02-27 18:04:00,
2013-02-27 12:09:00,34.5,27.4,28.97,WNW,296,14.0,14.0,75,0.00,-SN,,0.01,WeatherDisplay:10.37,2013-02-27 18:09:00,
2013-02-27 12:14:00,35.8,29.0,28.97,WNW,302,14.0,14.0,76,0.00,-SN,,0.01,WeatherDisplay:10.37,2013-02-27 18:14:00,
2013-02-27 12:19:00,35.2,28.4,28.97,NW,304,14.0,14.0,76,0.00,-SN,,0.01,WeatherDisplay:10.37,2013-02-27 18:19:00,
2013-02-27 12:24:00,35.2,28.4,28.97,WNW,301,14.0,14.0,76,0.00,-SN,,0.01,WeatherDisplay:10.37,2013-02-27 18:24:00,
2013-02-27 12:29:00,35.1,27.9,28.97,WNW,297,13.0,14.0,75,0.00,-SN,,0.01,WeatherDisplay:10.37,2013-02-27 18:29:00,
2013-02-27 12:39:00,34.9,28.1,28.97,WNW,300,13.0,13.0,76,0.00,-SN,,0.01,WeatherDisplay:10.37,2013-02-27 18:39:00,
2013-02-27 12:44:00,35.2,28.4,28.97,WNW,303,13.0,13.0,76,0.00,-SN,,0.01,WeatherDisplay:10.37,2013-02-27 18:44:00,
2013-02-27 12:49:00,35.4,28.6,28.97,NW,305,13.0,13.0,76,0.00,-SN,,0.01,WeatherDisplay:10.37,2013-02-27 18:49:00,
2013-02-27 12:54:00,35.2,28.4,28.97,NW,305,14.0,14.0,76,0.00,-SN,,0.01,WeatherDisplay:10.37,2013-02-27 18:54:00,
2013-02-27 12:59:00,35.8,28.6,28.97,WNW,303,14.0,14.0,75,0.00,-SN,,0.01,WeatherDisplay:10.37,2013-02-27 18:59:00,
2013-02-27 13:04:00,35.6,28.5,28.97,WNW,294,14.0,14.0,75,0.00,-SN,,0.01,WeatherDisplay:10.37,2013-02-27 19:04:00,
2013-02-27 13:09:00,35.6,28.5,28.97,WNW,292,14.0,14.0,75,0.00,-SN,,0.01,WeatherDisplay:10.37,2013-02-27 19:09:00,
2013-02-27 13:14:00,36.0,28.8,28.97,WNW,297,14.0,14.0,75,0.00,-SN,,0.01,WeatherDisplay:10.37,2013-02-27 19:14:00,
2013-02-27 13:34:00,36.0,28.1,28.97,WNW,303,14.0,14.0,73,0.00,-SN,,0.02,WeatherDisplay:10.37,2013-02-27 19:34:00,
2013-02-27 13:39:00,36.3,28.5,28.97,NW,307,14.0,14.0,73,0.00,-SN,,0.02,WeatherDisplay:10.37,2013-02-27 19:39:00,
2013-02-27 13:44:00,36.1,28.3,28.97,NW,310,14.0,14.0,73,0.01,-SN,,0.03,WeatherDisplay:10.37,2013-02-27 19:44:00,
2013-02-27 13:49:00,36.1,28.3,28.97,NW,312,14.0,14.0,73,0.00,-SN,,0.03,WeatherDisplay:10.37,2013-02-27 19:49:00,
2013-02-27 13:54:00,36.0,28.5,28.97,NW,312,14.0,14.0,74,0.00,-SN,,0.03,WeatherDisplay:10.37,2013-02-27 19:54:00,
2013-02-27 14:09:00,36.5,28.7,28.97,WNW,300,14.0,14.0,73,0.00,-SN,,0.03,WeatherDisplay:10.37,2013-02-27 20:09:00,
2013-02-27 14:14:00,36.9,28.7,29.00,WNW,295,14.0,14.0,72,0.00,-SN,,0.03,WeatherDisplay:10.37,2013-02-27 20:14:00,
2013-02-27 14:24:00,36.7,28.2,29.00,NW,305,14.0,14.0,71,0.00,-SN,,0.03,WeatherDisplay:10.37,2013-02-27 20:24:00,
2013-02-27 14:29:00,37.0,28.5,29.00,WNW,297,14.0,14.0,71,0.00,-SN,,0.03,WeatherDisplay:10.37,2013-02-27 20:29:00,
2013-02-27 14:34:00,36.7,28.5,29.00,NW,304,14.0,14.0,72,0.00,-SN,,0.03,WeatherDisplay:10.37,2013-02-27 20:34:00,
2013-02-27 14:39:00,36.0,27.8,29.00,WNW,303,14.0,14.0,72,0.00,-SN,,0.03,WeatherDisplay:10.37,2013-02-27 20:39:00,
2013-02-27 14:49:00,37.2,29.7,29.00,WNW,303,14.0,14.0,74,0.00,-SN,,0.03,WeatherDisplay:10.37,2013-02-27 20:49:00,
2013-02-27 14:54:00,37.2,29.4,29.00,WNW,299,14.0,14.0,73,0.00,-SN,,0.03,WeatherDisplay:10.37,2013-02-27 20:54:00,
2013-02-27 15:04:00,37.0,28.5,29.00,NW,305,14.0,14.0,71,0.00,-SN,,0.03,WeatherDisplay:10.37,2013-02-27 21:04:00,
2013-02-27 15:09:00,36.9,28.3,29.00,NW,304,14.0,14.0,71,0.00,-SN,,0.03,WeatherDisplay:10.37,2013-02-27 21:09:00,
2013-02-27 15:19:00,36.7,27.8,29.00,WNW,301,15.0,15.0,70,0.00,-SN,,0.03,WeatherDisplay:10.37,2013-02-27 21:19:00,
2013-02-27 15:24:00,36.5,27.6,29.00,WNW,302,15.0,15.0,70,0.00,-SN,,0.03,WeatherDisplay:10.37,2013-02-27 21:24:00,
2013-02-27 15:29:00,36.3,27.8,29.00,WNW,300,15.0,15.0,71,0.00,-SN,,0.03,WeatherDisplay:10.37,2013-02-27 21:29:00,
2013-02-27 15:34:00,36.1,28.0,29.00,WNW,300,15.0,15.0,72,0.00,-SN,,0.03,WeatherDisplay:10.37,2013-02-27 21:34:00,
2013-02-27 15:39:00,35.6,27.5,29.00,WNW,298,15.0,15.0,72,0.00,-SN,,0.03,WeatherDisplay:10.37,2013-02-27 21:39:00,
2013-02-27 15:44:00,35.1,27.6,29.00,WNW,299,14.0,15.0,74,0.00,-SN,,0.03,WeatherDisplay:10.37,2013-02-27 21:44:00,
2013-02-27 15:49:00,35.6,28.1,29.00,WNW,302,14.0,14.0,74,0.00,-SN,,0.03,WeatherDisplay:10.37,2013-02-27 21:49:00,
2013-02-27 15:54:00,35.6,28.1,29.00,WNW,301,14.0,14.0,74,0.00,-SN,,0.03,WeatherDisplay:10.37,2013-02-27 21:54:00,
2013-02-27 15:59:00,35.6,28.5,29.00,WNW,300,14.0,14.0,75,0.00,-SN,,0.03,WeatherDisplay:10.37,2013-02-27 21:59:00,
2013-02-27 16:04:00,35.4,28.3,29.00,WNW,299,14.0,14.0,75,0.00,-SN,,0.03,WeatherDisplay:10.37,2013-02-27 22:04:00,
2013-02-27 16:09:00,35.2,28.1,29.00,WNW,298,14.0,14.0,75,0.00,-SN,,0.03,WeatherDisplay:10.37,2013-02-27 22:09:00,
2013-02-27 16:19:00,35.2,28.1,29.03,NW,305,14.0,14.0,75,0.00,-SN,,0.03,WeatherDisplay:10.37,2013-02-27 22:19:00,
2013-02-27 16:24:00,35.2,28.1,29.03,NW,305,14.0,14.0,75,0.00,-SN,,0.03,WeatherDisplay:10.37,2013-02-27 22:24:00,
2013-02-27 16:29:00,34.9,27.8,29.03,WNW,296,14.0,14.0,75,0.00,-SN,,0.03,WeatherDisplay:10.37,2013-02-27 22:29:00,
2013-02-27 16:34:00,35.1,28.3,29.03,WNW,299,14.0,14.0,76,0.00,-SN,,0.03,WeatherDisplay:10.37,2013-02-27 22:34:00,
2013-02-27 16:39:00,34.9,28.1,29.03,NW,304,14.0,14.0,76,0.00,-SN,,0.03,WeatherDisplay:10.37,2013-02-27 22:39:00,
2013-02-27 16:49:00,34.5,27.4,29.03,NW,306,14.0,14.0,75,0.00,BKN,,0.03,WeatherDisplay:10.37,2013-02-27 22:49:00,
2013-02-27 16:54:00,34.5,27.4,29.03,NW,306,14.0,14.0,75,0.00,BKN,,0.03,WeatherDisplay:10.37,2013-02-27 22:54:00,
2013-02-27 16:59:00,34.3,27.6,29.03,NW,305,14.0,14.0,76,0.00,BKN,,0.03,WeatherDisplay:10.37,2013-02-27 22:59:00,
2013-02-27 17:04:00,34.2,27.1,29.03,NW,309,14.0,14.0,75,0.00,OVC,,0.03,WeatherDisplay:10.37,2013-02-27 23:04:00,
2013-02-27 17:09:00,34.2,27.1,29.03,NW,310,14.0,14.0,75,0.00,OVC,,0.03,WeatherDisplay:10.37,2013-02-27 23:09:00,
2013-02-27 17:14:00,33.8,26.7,29.03,NW,311,14.0,14.0,75,0.00,OVC,,0.03,WeatherDisplay:10.37,2013-02-27 23:14:00,
2013-02-27 17:19:00,33.8,27.0,29.03,NW,311,15.0,15.0,76,0.00,OVC,,0.03,WeatherDisplay:10.37,2013-02-27 23:19:00,
2013-02-27 17:24:00,33.8,27.0,29.03,NW,308,15.0,15.0,76,0.00,OVC,,0.03,WeatherDisplay:10.37,2013-02-27 23:24:00,
2013-02-27 17:29:00,33.1,27.0,29.03,NW,309,15.0,15.0,78,0.00,OVC,,0.03,WeatherDisplay:10.37,2013-02-27 23:29:00,
2013-02-27 17:34:00,32.9,26.8,29.03,NW,308,15.0,15.0,78,0.00,OVC,,0.03,WeatherDisplay:10.37,2013-02-27 23:34:00,
2013-02-27 17:39:00,32.9,26.8,29.03,NW,306,15.0,15.0,78,0.00,OVC,,0.03,WeatherDisplay:10.37,2013-02-27 23:39:00,
2013-02-27 17:44:00,32.7,26.9,29.03,NW,307,15.0,15.0,79,0.00,OVC,,0.03,WeatherDisplay:10.37,2013-02-27 23:44:00,
2013-02-27 17:49:00,32.5,26.7,29.03,WNW,303,15.0,15.0,79,0.00,OVC,,0.03,WeatherDisplay:10.37,2013-02-27 23:49:00,
2013-02-27 17:54:00,32.7,26.9,29.03,WNW,301,15.0,15.0,79,0.00,OVC,,0.03,WeatherDisplay:10.37,2013-02-27 23:54:00,
2013-02-27 17:59:00,32.5,27.1,29.06,WNW,299,14.0,15.0,80,0.00,OVC,,0.03,WeatherDisplay:10.37,2013-02-27 23:59:00,
2013-02-27 18:04:00,32.5,27.4,29.06,WNW,300,14.0,14.0,81,0.00,OVC,,0.03,WeatherDisplay:10.37,2013-02-28 00:04:00,
2013-02-27 18:09:00,32.5,27.4,29.06,WNW,302,14.0,14.0,81,0.00,OVC,,0.03,WeatherDisplay:10.37,2013-02-28 00:09:00,
2013-02-27 18:14:00,32.7,27.5,29.06,WNW,303,13.0,14.0,81,0.00,OVC,,0.03,WeatherDisplay:10.37,2013-02-28 00:14:00,
2013-02-27 18:19:00,32.5,27.7,29.06,WNW,300,13.0,13.0,82,0.00,OVC,,0.03,WeatherDisplay:10.37,2013-02-28 00:19:00,
2013-02-27 18:24:00,32.5,27.7,29.06,WNW,301,13.0,13.0,82,0.00,OVC,,0.03,WeatherDisplay:10.37,2013-02-28 00:24:00,
2013-02-27 18:29:00,32.5,27.7,29.06,WNW,301,12.0,12.0,82,0.00,OVC,,0.03,WeatherDisplay:10.37,2013-02-28 00:29:00,
2013-02-27 18:34:00,32.4,27.5,29.06,WNW,300,12.0,12.0,82,0.00,-SN,,0.03,WeatherDisplay:10.37,2013-02-28 00:34:00,
2013-02-27 18:39:00,32.4,27.5,29.06,WNW,303,12.0,12.0,82,0.00,-SN,,0.03,WeatherDisplay:10.37,2013-02-28 00:39:00,
2013-02-27 18:44:00,32.4,27.5,29.06,NW,307,12.0,12.0,82,0.00,-SN,,0.03,WeatherDisplay:10.37,2013-02-28 00:44:00,
2013-02-27 18:49:00,32.2,27.3,29.06,NW,308,12.0,12.0,82,0.00,OVC,,0.03,WeatherDisplay:10.37,2013-02-28 00:49:00,
2013-02-27 18:54:00,32.2,27.6,29.06,NW,306,12.0,12.0,83,0.00,OVC,,0.03,WeatherDisplay:10.37,2013-02-28 00:54:00,
2013-02-27 18:59:00,32.4,27.8,29.06,NW,305,12.0,12.0,83,0.00,OVC,,0.03,WeatherDisplay:10.37,2013-02-28 00:59:00,
2013-02-27 19:04:00,32.4,27.8,29.06,NW,308,12.0,12.0,83,0.00,BKN,,0.03,WeatherDisplay:10.37,2013-02-28 01:04:00,
2013-02-27 19:09:00,32.2,27.6,29.06,NW,306,13.0,13.0,83,0.00,BKN,,0.03,WeatherDisplay:10.37,2013-02-28 01:09:00,
2013-02-27 19:14:00,32.2,27.6,29.06,NW,304,12.0,12.0,83,0.00,BKN,,0.03,WeatherDisplay:10.37,2013-02-28 01:14:00,
2013-02-27 19:19:00,32.4,27.8,29.06,NW,308,12.0,12.0,83,0.00,BKN,,0.03,WeatherDisplay:10.37,2013-02-28 01:19:00,
2013-02-27 19:24:00,32.2,27.6,29.06,NW,311,12.0,12.0,83,0.00,BKN,,0.03,WeatherDisplay:10.37,2013-02-28 01:24:00,
2013-02-27 19:29:00,32.2,27.6,29.06,NW,308,12.0,12.0,83,0.00,BKN,,0.03,WeatherDisplay:10.37,2013-02-28 01:29:00,
2013-02-27 19:34:00,32.2,27.6,29.06,WNW,303,12.0,12.0,83,0.00,OVC,,0.03,WeatherDisplay:10.37,2013-02-28 01:34:00,
2013-02-27 19:39:00,32.2,27.6,29.06,WNW,302,12.0,12.0,83,0.00,OVC,,0.03,WeatherDisplay:10.37,2013-02-28 01:39:00,
2013-02-27 19:44:00,32.2,27.6,29.06,WNW,301,12.0,12.0,83,0.00,OVC,,0.03,WeatherDisplay:10.37,2013-02-28 01:44:00,
2013-02-27 19:49:00,32.2,27.6,29.06,WNW,302,12.0,12.0,83,0.00,OVC,,0.03,WeatherDisplay:10.37,2013-02-28 01:49:00,
2013-02-27 19:54:00,32.0,27.4,29.06,WNW,302,12.0,12.0,83,0.00,OVC,,0.03,WeatherDisplay:10.37,2013-02-28 01:54:00,
2013-02-27 19:59:00,32.0,27.4,29.06,WNW,300,12.0,12.0,83,0.00,OVC,,0.03,WeatherDisplay:10.37,2013-02-28 01:59:00,
2013-02-27 20:04:00,32.2,27.6,29.09,NW,304,12.0,12.0,83,0.00,OVC,,0.03,WeatherDisplay:10.37,2013-02-28 02:04:00,
2013-02-27 20:09:00,32.0,27.4,29.09,WNW,301,12.0,12.0,83,0.00,OVC,,0.03,WeatherDisplay:10.37,2013-02-28 02:09:00,
2013-02-27 20:14:00,32.0,27.4,29.09,WNW,295,10.0,11.0,83,0.00,OVC,,0.03,WeatherDisplay:10.37,2013-02-28 02:14:00,
2013-02-27 20:19:00,32.2,27.6,29.09,WNW,293,10.0,11.0,83,0.00,OVC,,0.03,WeatherDisplay:10.37,2013-02-28 02:19:00,
2013-02-27 20:24:00,32.2,27.6,29.09,WNW,296,10.0,10.0,83,0.00,OVC,,0.03,WeatherDisplay:10.37,2013-02-28 02:24:00,
2013-02-27 20:29:00,32.2,27.6,29.09,WNW,300,10.0,10.0,83,0.00,OVC,,0.03,WeatherDisplay:10.37,2013-02-28 02:29:00,
2013-02-27 20:34:00,32.2,27.6,29.09,WNW,298,10.0,10.0,83,0.00,OVC,,0.03,WeatherDisplay:10.37,2013-02-28 02:34:00,
2013-02-27 20:39:00,32.2,27.6,29.09,WNW,299,9.0,10.0,83,0.00,OVC,,0.03,WeatherDisplay:10.37,2013-02-28 02:39:00,
2013-02-27 20:44:00,32.2,27.6,29.09,WNW,296,10.0,10.0,83,0.00,OVC,,0.03,WeatherDisplay:10.37,2013-02-28 02:44:00,
2013-02-27 20:49:00,32.2,27.6,29.09,WNW,298,10.0,10.0,83,0.00,OVC,,0.03,WeatherDisplay:10.37,2013-02-28 02:49:00,
2013-02-27 20:54:00,32.2,27.6,29.09,WNW,298,9.0,10.0,83,0.00,OVC,,0.03,WeatherDisplay:10.37,2013-02-28 02:54:00,
2013-02-27 20:59:00,32.2,27.6,29.09,WNW,297,10.0,10.0,83,0.00,OVC,,0.03,WeatherDisplay:10.37,2013-02-28 02:59:00,
2013-02-27 21:04:00,32.2,27.6,29.09,WNW,300,10.0,10.0,83,0.00,OVC,,0.03,WeatherDisplay:10.37,2013-02-28 03:04:00,
2013-02-27 21:09:00,32.2,27.6,29.09,WNW,300,10.0,10.0,83,0.00,OVC,,0.03,WeatherDisplay:10.37,2013-02-28 03:09:00,
2013-02-27 21:14:00,32.2,27.6,29.09,WNW,302,10.0,10.0,83,0.00,OVC,,0.03,WeatherDisplay:10.37,2013-02-28 03:14:00,
2013-02-27 21:19:00,32.2,27.6,29.09,WNW,302,10.0,10.0,83,0.00,OVC,,0.03,WeatherDisplay:10.37,2013-02-28 03:19:00,
2013-02-27 21:24:00,32.2,27.6,29.09,WNW,296,10.0,10.0,83,0.00,OVC,,0.03,WeatherDisplay:10.37,2013-02-28 03:24:00,
2013-02-27 21:29:00,32.2,27.6,29.09,WNW,295,10.0,10.0,83,0.00,OVC,,0.03,WeatherDisplay:10.37,2013-02-28 03:29:00,
2013-02-27 21:34:00,32.2,27.6,29.09,WNW,302,10.0,10.0,83,0.00,OVC,,0.03,WeatherDisplay:10.37,2013-02-28 03:34:00,
2013-02-27 21:39:00,32.2,27.6,29.09,NW,304,10.0,10.0,83,0.00,OVC,,0.03,WeatherDisplay:10.37,2013-02-28 03:39:00,
2013-02-27 21:44:00,32.2,27.6,29.09,NW,305,10.0,10.0,83,0.00,OVC,,0.03,WeatherDisplay:10.37,2013-02-28 03:44:00,
2013-02-27 21:49:00,32.2,27.3,29.09,WNW,302,10.0,10.0,82,0.00,OVC,,0.03,WeatherDisplay:10.37,2013-02-28 03:49:00,
2013-02-27 21:54:00,32.2,27.3,29.09,WNW,303,10.0,10.0,82,0.00,OVC,,0.03,WeatherDisplay:10.37,2013-02-28 03:54:00,
2013-02-27 21:59:00,32.2,27.3,29.09,WNW,301,10.0,10.0,82,0.00,OVC,,0.03,WeatherDisplay:10.37,2013-02-28 03:59:00,
2013-02-27 22:04:00,32.2,27.3,29.09,WNW,299,10.0,10.0,82,0.00,OVC,,0.03,WeatherDisplay:10.37,2013-02-28 04:04:00,
2013-02-27 22:09:00,32.2,27.3,29.09,WNW,301,10.0,10.0,82,0.00,OVC,,0.03,WeatherDisplay:10.37,2013-02-28 04:09:00,
2013-02-27 22:14:00,32.2,27.3,29.09,NW,308,10.0,10.0,82,0.00,OVC,,0.03,WeatherDisplay:10.37,2013-02-28 04:14:00,
2013-02-27 22:24:00,32.2,27.3,29.09,WNW,303,10.0,11.0,82,0.00,OVC,,0.03,WeatherDisplay:10.37,2013-02-28 04:24:00,
2013-02-27 22:29:00,32.2,27.3,29.09,WNW,299,12.0,12.0,82,0.00,OVC,,0.03,WeatherDisplay:10.37,2013-02-28 04:29:00,
2013-02-27 22:34:00,32.2,27.3,29.09,WNW,297,10.0,12.0,82,0.00,OVC,,0.03,WeatherDisplay:10.37,2013-02-28 04:34:00,
2013-02-27 22:39:00,32.2,27.3,29.09,WNW,298,10.0,11.0,82,0.00,OVC,,0.03,WeatherDisplay:10.37,2013-02-28 04:39:00,
2013-02-27 22:49:00,32.2,27.3,29.09,WNW,297,10.0,11.0,82,0.00,OVC,,0.03,WeatherDisplay:10.37,2013-02-28 04:49:00,
2013-02-27 22:54:00,32.2,27.3,29.09,WNW,299,10.0,10.0,82,0.00,OVC,,0.03,WeatherDisplay:10.37,2013-02-28 04:54:00,
2013-02-27 22:59:00,32.2,27.3,29.09,WNW,296,10.0,10.0,82,0.00,OVC,,0.03,WeatherDisplay:10.37,2013-02-28 04:59:00,
2013-02-27 23:04:00,32.2,27.3,29.09,WNW,294,10.0,10.0,82,0.00,OVC,,0.03,WeatherDisplay:10.37,2013-02-28 05:04:00,
2013-02-27 23:09:00,32.2,27.3,29.09,WNW,297,10.0,10.0,82,0.00,OVC,,0.03,WeatherDisplay:10.37,2013-02-28 05:09:00,
2013-02-27 23:14:00,32.2,27.3,29.09,WNW,297,10.0,10.0,82,0.00,OVC,,0.03,WeatherDisplay:10.37,2013-02-28 05:14:00,
2013-02-27 23:19:00,32.2,27.3,29.09,WNW,299,10.0,10.0,82,0.00,OVC,,0.03,WeatherDisplay:10.37,2013-02-28 05:19:00,
2013-02-27 23:24:00,32.2,27.3,29.09,WNW,302,10.0,11.0,82,0.00,OVC,,0.03,WeatherDisplay:10.37,2013-02-28 05:24:00,
2013-02-27 23:29:00,32.2,27.3,29.09,NW,309,10.0,11.0,82,0.00,OVC,,0.03,WeatherDisplay:10.37,2013-02-28 05:29:00,
2013-02-27 23:34:00,32.5,27.7,29.09,NW,315,12.0,12.0,82,0.00,OVC,,0.03,WeatherDisplay:10.37,2013-02-28 05:34:00,
2013-02-27 23:39:00,32.4,27.5,29.09,NW,312,12.0,12.0,82,0.00,OVC,,0.03,WeatherDisplay:10.37,2013-02-28 05:39:00,
2013-02-27 23:44:00,32.5,27.7,29.09,NW,306,12.0,12.0,82,0.00,OVC,,0.03,WeatherDisplay:10.37,2013-02-28 05:44:00,
2013-02-27 23:49:00,32.5,27.7,29.09,NW,305,12.0,12.0,82,0.00,OVC,,0.03,WeatherDisplay:10.37,2013-02-28 05:49:00,
2013-02-27 23:54:00,32.4,27.5,29.09,NW,307,12.0,12.0,82,0.00,OVC,,0.03,WeatherDisplay:10.37,2013-02-28 05:54:00,
2013-02-27 23:59:00,32.4,27.5,29.09,NW,309,12.0,12.0,82,0.00,OVC,,0.00,WeatherDisplay:10.37,2013-02-28 05:59:00,